• Join FlightAware (Why Join?)
  • Login
  • US Flag 
02:09PM EDT


 

Airport Tracker/Info


-or-


 

Live Flight TrackerFlight Track Log ✈ ASQ5036 ✈ 10-May-2013 ✈ KATL - KCSG

Flight Track Log - Related Links

Times and Time Zones

All times are in EDT time to prevent confusion due to time zone crossing. See the ASQ5036 flight status page for this flight to view local times or setup timezone preferences in your user account.

Time Position Orientation Groundspeed Altitude Reporting Facility
EDT Latitude Longitude Course Direction KTS MPH feet Rate Location/Type
08:04PM 33.6333 -84.4667 248° West 165 190 2,200  Level Atlanta TRACON
08:05PM 33.6167 -84.5167 248° West 237 273 3,600 2,040 Climbing Atlanta TRACON
08:06PM 33.5833 -84.5833 239° Southwest 252 290 6,100 2,820 Climbing Atlanta TRACON
08:07PM 33.5333 -84.6333 220° Southwest 264 304 9,000 1,980 Climbing Atlanta TRACON
08:08PM 33.4500 -84.6500 189° South 303 349 10,100 480 Climbing Atlanta TRACON
08:09PM 33.3667 -84.6833 198° South 329 379 10,000 -60 Descending Atlanta TRACON
08:10PM 33.2667 -84.7000 188° South 326 375 10,000  Level Atlanta TRACON
08:11PM 33.1833 -84.7333 199° South 319 367 10,100  Climbing Atlanta TRACON
08:12PM 33.1000 -84.7667 199° South 318 366 10,000 -120 Descending Atlanta TRACON
08:13PM 33.0167 -84.7833 190° South 319 367 9,900 -120 Descending Atlanta TRACON
08:14PM 32.9167 -84.8167 196° South 320 368 9,800 -660 Descending Atlanta TRACON
08:15PM 32.8500 -84.8167 180° South 274 315 8,600 -1,500 Descending Atlanta TRACON
08:16PM 32.7667 -84.8167 180° South 260 299 6,800 -1,860 Descending Atlanta TRACON
08:17PM 32.7000 -84.8333 192° South 254 292 5,100 -1,440 Descending Atlanta TRACON
08:18PM 32.6500 -84.8333 180° South 215 247 4,100 -900 Descending Atlanta TRACON
08:19PM 32.5833 -84.8500 192° South 160 184 3,300 -1,200 Descending Atlanta TRACON
08:20PM 32.5667 -84.8667 220° Southwest 154 177 1,800 -1,200 Descending Atlanta TRACON
08:21PM 32.5333 -84.9000 220° Southwest 144 166 900 -840 Descending Atlanta TRACON
08:23PM 32.5000 -84.9333 212° Southwest  Level FlightAware Approximate
08:30PM 32.5163 -84.9389 212° Southwest  Level Estimated
08:31PM 32.5163 -84.9389 212° Southwest  Level Estimated